createdAt,value
2023-05-01T00:00:20.068Z,5.64
2023-05-01T00:02:47.538Z,5.75
2023-05-01T00:05:14.923Z,5.68
2023-05-01T00:07:42.324Z,5.49
2023-05-01T00:10:11.794Z,5.43
2023-05-01T00:12:39.155Z,5.54
2023-05-01T00:15:07.828Z,5.15
2023-05-01T00:17:35.211Z,5.37
2023-05-01T00:20:02.624Z,5.42
2023-05-01T00:22:30.414Z,5.30
2023-05-01T00:24:57.800Z,5.27
2023-05-01T00:27:27.265Z,5.29
2023-05-01T00:29:54.850Z,5.43
2023-05-01T00:32:22.448Z,5.42
2023-05-01T00:34:49.862Z,5.07
2023-05-01T00:37:17.370Z,5.15
2023-05-01T00:39:44.746Z,5.25
2023-05-01T00:42:12.221Z,5.23
2023-05-01T00:44:40.934Z,5.20
2023-05-01T00:47:08.430Z,4.88
2023-05-01T00:49:35.926Z,4.98
2023-05-01T00:52:03.440Z,5.03
2023-05-01T00:54:31.025Z,4.96
2023-05-01T00:56:58.477Z,4.49
2023-05-01T00:59:25.928Z,4.79
2023-05-01T01:01:56.567Z,4.88
2023-05-01T01:04:24.216Z,4.80
2023-05-01T01:06:57.192Z,4.73
2023-05-01T01:09:38.707Z,4.79
2023-05-01T01:12:15.402Z,4.79
2023-05-01T01:14:48.741Z,4.72
2023-05-01T01:17:25.227Z,4.62
2023-05-01T01:20:13.009Z,4.49
2023-05-01T01:22:44.573Z,4.64
2023-05-01T01:25:34.304Z,4.54
2023-05-01T01:28:18.055Z,4.55
2023-05-01T01:31:05.016Z,4.57
2023-05-01T01:34:00.937Z,4.57
2023-05-01T01:36:36.231Z,4.36
2023-05-01T01:39:13.347Z,4.09
2023-05-01T01:41:42.443Z,4.29
2023-05-01T01:44:17.531Z,4.32
2023-05-01T01:46:45.433Z,4.13
2023-05-01T01:49:20.716Z,3.96
2023-05-01T01:51:50.929Z,4.23
2023-05-01T01:54:22.936Z,4.25
2023-05-01T01:56:52.237Z,4.25
2023-05-01T01:59:22.571Z,4.13
2023-05-01T02:01:51.960Z,4.27
2023-05-01T02:04:22.370Z,4.26
2023-05-01T02:06:50.671Z,4.17
2023-05-01T02:09:21.244Z,4.19
2023-05-01T02:11:50.864Z,4.11
2023-05-01T02:14:19.893Z,3.77
2023-05-01T02:16:48.154Z,3.88
2023-05-01T02:19:17.034Z,3.87
2023-05-01T02:21:46.873Z,3.89
2023-05-01T02:24:14.674Z,3.71
2023-05-01T02:26:44.495Z,3.72
2023-05-01T02:29:12.115Z,3.78
2023-05-01T02:31:39.681Z,3.50
2023-05-01T02:34:07.137Z,3.64
2023-05-01T02:36:35.207Z,3.50
2023-05-01T02:39:04.154Z,3.68
2023-05-01T02:41:34.281Z,3.78
2023-05-01T02:44:04.135Z,3.63
2023-05-01T02:46:34.379Z,3.71
2023-05-01T02:49:03.608Z,3.42
2023-05-01T02:51:32.507Z,3.50
2023-05-01T02:54:00.504Z,3.62
2023-05-01T02:56:29.648Z,3.59
2023-05-01T02:58:57.162Z,3.52
2023-05-01T03:01:24.709Z,3.63
2023-05-01T03:03:52.209Z,3.52
2023-05-01T03:06:19.947Z,3.51
2023-05-01T03:08:47.761Z,3.55
2023-05-01T03:11:15.196Z,3.47
2023-05-01T03:13:44.530Z,3.41
2023-05-01T03:16:11.966Z,3.49
2023-05-01T03:18:40.445Z,3.35
2023-05-01T03:21:08.152Z,3.50
2023-05-01T03:23:35.562Z,3.35
2023-05-01T03:26:02.951Z,3.34
2023-05-01T03:28:30.553Z,3.47
2023-05-01T03:30:59.347Z,3.23
2023-05-01T03:33:27.794Z,3.43
2023-05-01T03:36:03.098Z,3.49
2023-05-01T03:38:31.277Z,3.30
2023-05-01T03:40:59.126Z,3.36
2023-05-01T03:43:26.662Z,3.29
2023-05-01T03:45:54.482Z,3.48
2023-05-01T03:48:23.253Z,3.47
2023-05-01T03:50:50.657Z,3.36
2023-05-01T03:53:18.305Z,3.47
2023-05-01T03:55:45.954Z,3.50
2023-05-01T03:58:13.315Z,3.71
2023-05-01T04:00:41.636Z,3.59
2023-05-01T04:03:09.091Z,3.72
2023-05-01T04:05:37.982Z,3.96
2023-05-01T04:08:05.953Z,3.88
2023-05-01T04:10:33.384Z,4.11
2023-05-01T04:13:00.775Z,3.99
2023-05-01T04:15:28.169Z,4.01
2023-05-01T04:17:56.774Z,4.21
2023-05-01T04:20:24.257Z,4.30
2023-05-01T04:22:53.012Z,4.17
2023-05-01T04:25:20.376Z,4.17
2023-05-01T04:27:47.807Z,4.29
2023-05-01T04:30:15.324Z,4.18
2023-05-01T04:32:42.804Z,4.19
2023-05-01T04:35:12.427Z,4.34
2023-05-01T04:37:39.814Z,4.73
2023-05-01T04:40:11.450Z,5.03
2023-05-01T04:42:39.268Z,5.05
2023-05-01T04:45:07.684Z,5.09
2023-05-01T04:47:35.136Z,5.20
2023-05-01T04:50:02.554Z,5.93
2023-05-01T04:52:29.934Z,7.08
2023-05-01T04:54:57.808Z,7.42
2023-05-01T04:57:26.656Z,7.34
2023-05-01T04:59:54.489Z,8.16
2023-05-01T05:02:22.145Z,7.66
2023-05-01T05:04:50.112Z,7.98
2023-05-01T05:07:17.538Z,7.15
2023-05-01T05:09:44.912Z,7.21
2023-05-01T05:12:12.277Z,6.92
2023-05-01T05:14:41.121Z,7.19
2023-05-01T05:17:08.489Z,7.21
2023-05-01T05:19:36.121Z,7.33
2023-05-01T05:22:04.063Z,7.03
2023-05-01T05:24:31.545Z,7.11
2023-05-01T05:26:58.945Z,6.95
2023-05-01T05:29:26.370Z,7.13
2023-05-01T05:31:57.128Z,7.86
2023-05-01T05:34:24.559Z,7.81
2023-05-01T05:36:52.010Z,8.28
2023-05-01T05:39:20.483Z,8.42
2023-05-01T05:41:49.117Z,8.74
2023-05-01T05:44:16.523Z,9.22
2023-05-01T05:46:43.967Z,9.60
2023-05-01T05:49:12.767Z,9.62
2023-05-01T05:51:40.154Z,9.49
2023-05-01T05:54:07.689Z,9.58
2023-05-01T05:56:35.089Z,9.78
2023-05-01T05:59:04.461Z,9.39
2023-05-01T06:01:32.307Z,9.83
2023-05-01T06:03:59.741Z,9.86
2023-05-01T06:06:28.603Z,10.34
2023-05-01T06:08:56.007Z,10.73
2023-05-01T06:11:23.556Z,10.71
2023-05-01T06:13:51.295Z,11.27
2023-05-01T06:16:18.783Z,11.02
2023-05-01T06:18:46.817Z,11.33
2023-05-01T06:21:14.215Z,11.09
2023-05-01T06:23:42.902Z,11.24
2023-05-01T06:26:10.308Z,11.18
2023-05-01T06:28:37.667Z,11.63
2023-05-01T06:31:05.540Z,11.57
2023-05-01T06:33:34.187Z,11.70
2023-05-01T06:36:02.435Z,11.60
2023-05-01T06:38:29.879Z,11.31
2023-05-01T06:40:58.571Z,11.41
2023-05-01T06:43:28.046Z,11.06
2023-05-01T06:45:55.807Z,11.71
2023-05-01T06:48:23.258Z,12.03
2023-05-01T06:50:50.704Z,12.14
2023-05-01T06:53:18.091Z,12.60
2023-05-01T06:55:45.773Z,12.86
2023-05-01T06:58:23.271Z,13.13
2023-05-01T07:00:51.247Z,13.20
2023-05-01T07:03:18.865Z,12.76
2023-05-01T07:05:46.390Z,12.86
2023-05-01T07:08:14.341Z,13.38
2023-05-01T07:10:42.327Z,13.67
2023-05-01T07:13:10.434Z,13.74
2023-05-01T07:15:39.412Z,14.04
2023-05-01T07:18:10.065Z,14.20
2023-05-01T07:20:37.550Z,14.14
2023-05-01T07:23:07.307Z,14.74
2023-05-01T07:25:35.373Z,14.60
2023-05-01T07:28:04.572Z,14.36
2023-05-01T07:30:33.099Z,14.51
2023-05-01T07:33:02.000Z,14.63
2023-05-01T07:35:29.776Z,14.84
2023-05-01T07:37:57.228Z,14.91
2023-05-01T07:40:24.724Z,14.86
2023-05-01T07:42:54.429Z,15.04
2023-05-01T07:45:22.136Z,15.18
2023-05-01T07:47:50.141Z,15.18
2023-05-01T07:50:18.969Z,14.88
2023-05-01T07:52:46.624Z,14.82
2023-05-01T07:55:14.170Z,15.10
2023-05-01T07:57:41.871Z,15.61
2023-05-01T08:00:10.256Z,15.70
2023-05-01T08:02:37.740Z,15.85
2023-05-01T08:05:05.793Z,16.02
2023-05-01T08:07:34.485Z,16.39
2023-05-01T08:10:02.130Z,16.08
2023-05-01T08:12:31.109Z,16.10
2023-05-01T08:14:58.542Z,16.74
2023-05-01T08:17:26.084Z,16.22
2023-05-01T08:19:56.466Z,16.71
2023-05-01T08:22:24.398Z,16.97
2023-05-01T08:24:53.296Z,16.78
2023-05-01T08:27:20.850Z,16.77
2023-05-01T08:29:48.457Z,16.81
2023-05-01T08:32:16.161Z,16.67
2023-05-01T08:34:43.538Z,17.11
2023-05-01T08:37:10.938Z,17.41
2023-05-01T08:39:38.299Z,17.54
2023-05-01T08:42:07.123Z,17.79
2023-05-01T08:44:38.885Z,17.50
2023-05-01T08:47:13.590Z,17.54
2023-05-01T08:49:42.657Z,17.99
2023-05-01T08:52:12.467Z,17.98
2023-05-01T08:54:42.921Z,18.24
2023-05-01T08:57:12.948Z,18.54
2023-05-01T08:59:41.436Z,18.12
2023-05-01T09:02:10.490Z,17.89
2023-05-01T09:04:39.338Z,18.63
2023-05-01T09:07:07.188Z,18.09
2023-05-01T09:09:35.508Z,19.15
2023-05-01T09:12:09.847Z,19.12
2023-05-01T09:14:38.748Z,19.13
2023-05-01T09:17:06.236Z,19.22
2023-05-01T09:19:33.797Z,19.01
2023-05-01T09:22:01.378Z,19.39
2023-05-01T09:24:28.797Z,19.18
2023-05-01T09:26:58.105Z,19.40
2023-05-01T09:29:40.242Z,19.24
2023-05-01T09:32:15.050Z,18.74
2023-05-01T09:34:43.588Z,18.57
2023-05-01T09:37:13.974Z,19.59
2023-05-01T09:39:41.382Z,18.63
2023-05-01T09:42:09.567Z,19.36
2023-05-01T09:44:45.175Z,19.65
2023-05-01T09:47:13.856Z,19.20
2023-05-01T09:49:46.419Z,18.80
2023-05-01T09:52:14.435Z,18.94
2023-05-01T09:54:42.511Z,19.34
2023-05-01T09:57:10.026Z,19.31
2023-05-01T09:59:37.492Z,18.82
2023-05-01T10:02:06.568Z,19.18
2023-05-01T10:04:35.157Z,19.61
2023-05-01T10:07:13.173Z,19.99
2023-05-01T10:09:41.216Z,18.57
2023-05-01T10:12:08.670Z,19.76
2023-05-01T10:14:51.081Z,19.56
2023-05-01T10:17:20.621Z,18.87
2023-05-01T10:19:48.554Z,19.28
2023-05-01T10:22:16.477Z,19.00
2023-05-01T10:24:46.027Z,18.56
2023-05-01T10:27:14.206Z,19.15
2023-05-01T10:29:42.802Z,19.03
2023-05-01T10:32:10.808Z,18.59
2023-05-01T10:34:44.906Z,19.05
2023-05-01T10:37:18.701Z,19.68
2023-05-01T10:39:46.118Z,20.08
2023-05-01T10:42:14.842Z,20.12
2023-05-01T10:44:43.170Z,19.79
2023-05-01T10:47:46.615Z,19.68
2023-05-01T10:50:16.305Z,20.34
2023-05-01T10:53:18.139Z,20.42
2023-05-01T10:55:47.124Z,19.72
2023-05-01T10:58:15.841Z,19.56
2023-05-01T11:00:43.233Z,20.10
2023-05-01T11:03:40.062Z,19.60
2023-05-01T11:06:09.634Z,20.61
2023-05-01T11:08:39.109Z,20.56
2023-05-01T11:11:43.891Z,19.78
2023-05-01T11:14:11.509Z,19.69
2023-05-01T11:16:43.046Z,19.97
2023-05-01T11:19:12.399Z,19.54
2023-05-01T11:21:41.960Z,20.28
2023-05-01T11:24:10.236Z,21.42
2023-05-01T11:26:39.773Z,21.22
2023-05-01T11:29:10.124Z,20.78
2023-05-01T11:31:38.262Z,20.30
2023-05-01T11:34:06.866Z,20.79
2023-05-01T11:36:50.668Z,20.48
2023-05-01T11:39:19.341Z,20.84
2023-05-01T11:41:47.513Z,21.56
2023-05-01T11:44:16.829Z,19.78
2023-05-01T11:46:44.276Z,20.32
2023-05-01T11:49:12.161Z,19.75
2023-05-01T11:51:39.992Z,20.11
2023-05-01T11:54:10.259Z,20.49
2023-05-01T11:56:40.861Z,20.67
2023-05-01T11:59:13.093Z,20.92
2023-05-01T12:01:41.980Z,20.91
2023-05-01T12:04:09.732Z,20.14
2023-05-01T12:06:40.516Z,20.14
2023-05-01T12:09:09.542Z,20.64
2023-05-01T12:11:37.591Z,19.84
2023-05-01T12:14:05.656Z,20.35
2023-05-01T12:16:33.574Z,20.29
2023-05-01T12:19:01.637Z,21.04
2023-05-01T12:21:29.035Z,20.85
2023-05-01T12:23:58.192Z,19.60
2023-05-01T12:26:26.889Z,20.45
2023-05-01T12:28:55.569Z,21.05
2023-05-01T12:31:23.648Z,21.51
2023-05-01T12:33:55.417Z,21.39
2023-05-01T12:36:25.241Z,20.35
2023-05-01T12:38:58.372Z,20.46
2023-05-01T12:41:37.633Z,20.72
2023-05-01T12:44:17.813Z,20.86
2023-05-01T12:46:47.327Z,20.90
2023-05-01T12:49:18.551Z,21.01
2023-05-01T12:51:48.118Z,21.50
2023-05-01T12:54:20.670Z,21.41
2023-05-01T12:56:49.984Z,21.12
2023-05-01T12:59:22.392Z,20.60
2023-05-01T13:01:50.053Z,20.59
2023-05-01T13:04:22.111Z,20.85
2023-05-01T13:06:50.237Z,20.77
2023-05-01T13:09:18.250Z,21.36
2023-05-01T13:11:57.908Z,20.74
2023-05-01T13:14:25.720Z,21.01
2023-05-01T13:16:55.190Z,21.05
2023-05-01T13:19:28.677Z,20.55
2023-05-01T13:21:57.671Z,20.66
2023-05-01T13:24:25.581Z,20.24
2023-05-01T13:27:02.382Z,20.83
2023-05-01T13:29:31.982Z,20.81
2023-05-01T13:31:59.654Z,21.01
2023-05-01T13:34:30.619Z,20.85
2023-05-01T13:36:58.790Z,21.23
2023-05-01T13:39:26.408Z,21.05
2023-05-01T13:41:53.946Z,21.52
2023-05-01T13:44:23.465Z,21.50
2023-05-01T13:46:50.951Z,20.91
2023-05-01T13:49:22.610Z,20.98
2023-05-01T13:51:50.018Z,21.00
2023-05-01T13:54:17.968Z,20.98
2023-05-01T13:56:46.487Z,20.65
2023-05-01T13:59:13.920Z,20.93
2023-05-01T14:01:46.330Z,20.69
2023-05-01T14:04:17.850Z,20.50
2023-05-01T14:06:47.113Z,20.75
2023-05-01T14:09:17.862Z,20.89
2023-05-01T14:11:47.446Z,20.84
2023-05-01T14:14:17.160Z,20.77
2023-05-01T14:16:49.537Z,20.37
2023-05-01T14:19:18.249Z,20.44
2023-05-01T14:21:46.777Z,20.13
2023-05-01T14:24:17.633Z,20.12
2023-05-01T14:26:46.351Z,20.17
2023-05-01T14:29:22.242Z,20.50
2023-05-01T14:31:51.119Z,20.33
2023-05-01T14:34:19.251Z,20.08
2023-05-01T14:36:46.822Z,20.45
2023-05-01T14:39:15.980Z,20.58
2023-05-01T14:41:43.819Z,20.60
2023-05-01T14:44:16.426Z,20.58
2023-05-01T14:46:52.998Z,20.19
2023-05-01T14:49:24.250Z,20.33
2023-05-01T14:51:52.603Z,20.35
2023-05-01T14:54:21.123Z,20.15
2023-05-01T14:56:49.704Z,20.26
2023-05-01T14:59:17.420Z,20.07
2023-05-01T15:01:44.859Z,20.35
2023-05-01T15:04:13.062Z,20.29
2023-05-01T15:06:42.096Z,20.28
2023-05-01T15:09:09.715Z,20.20
2023-05-01T15:11:37.242Z,20.51
2023-05-01T15:14:05.844Z,20.29
2023-05-01T15:16:33.610Z,20.45
2023-05-01T15:19:01.070Z,20.38
2023-05-01T15:21:28.447Z,20.49
2023-05-01T15:23:57.150Z,20.27
2023-05-01T15:26:24.592Z,20.35
2023-05-01T15:28:51.983Z,20.44
2023-05-01T15:31:19.682Z,20.26
2023-05-01T15:33:50.911Z,20.29
2023-05-01T15:36:19.042Z,20.40
2023-05-01T15:38:47.526Z,20.40
2023-05-01T15:41:18.753Z,20.49
2023-05-01T15:43:46.508Z,20.16
2023-05-01T15:46:15.219Z,20.26
2023-05-01T15:48:42.734Z,20.16
2023-05-01T15:51:10.102Z,20.29
2023-05-01T15:53:37.461Z,20.02
2023-05-01T15:56:04.864Z,20.07
2023-05-01T15:58:33.552Z,20.27
2023-05-01T16:01:00.955Z,20.03
2023-05-01T16:03:28.535Z,20.31
2023-05-01T16:05:57.220Z,20.31
2023-05-01T16:08:24.791Z,20.15
2023-05-01T16:10:53.780Z,19.47
2023-05-01T16:13:21.244Z,19.79
2023-05-01T16:15:51.932Z,19.98
2023-05-01T16:18:21.100Z,19.91
2023-05-01T16:20:48.550Z,19.62
2023-05-01T16:23:16.225Z,19.85
2023-05-01T16:25:44.065Z,19.93
2023-05-01T16:28:12.955Z,19.43
2023-05-01T16:30:42.340Z,19.13
2023-05-01T16:33:17.626Z,19.50
2023-05-01T16:35:48.001Z,19.40
2023-05-01T16:38:15.416Z,19.49
2023-05-01T16:40:44.171Z,19.53
2023-05-01T16:43:11.574Z,19.66
2023-05-01T16:45:39.642Z,19.64
2023-05-01T16:48:07.414Z,19.50
2023-05-01T16:50:41.129Z,19.58
2023-05-01T16:53:08.517Z,19.38
2023-05-01T16:55:35.896Z,18.78
2023-05-01T16:58:03.304Z,19.13
2023-05-01T17:00:31.238Z,19.02
2023-05-01T17:02:58.971Z,18.60
2023-05-01T17:05:26.872Z,18.84
2023-05-01T17:07:55.641Z,19.01
2023-05-01T17:10:23.059Z,18.99
2023-05-01T17:12:50.452Z,18.98
2023-05-01T17:15:21.889Z,18.84
2023-05-01T17:17:49.448Z,18.90
2023-05-01T17:20:17.076Z,18.81
2023-05-01T17:22:45.636Z,18.82
2023-05-01T17:25:15.077Z,18.69
2023-05-01T17:27:42.793Z,18.62
2023-05-01T17:30:10.716Z,18.61
2023-05-01T17:32:38.241Z,18.37
2023-05-01T17:35:06.755Z,18.43
2023-05-01T17:37:37.877Z,18.34
2023-05-01T17:40:07.053Z,18.07
2023-05-01T17:42:37.094Z,18.02
2023-05-01T17:45:07.311Z,17.98
2023-05-01T17:47:34.730Z,18.06
2023-05-01T17:50:04.600Z,17.94
2023-05-01T17:52:31.979Z,17.95
2023-05-01T17:55:00.244Z,17.97
2023-05-01T17:57:28.245Z,17.88
2023-05-01T17:59:57.272Z,17.83
2023-05-01T18:02:26.161Z,17.82
2023-05-01T18:04:53.874Z,17.79
2023-05-01T18:07:21.270Z,17.78
2023-05-01T18:09:48.648Z,17.75
2023-05-01T18:12:16.062Z,17.67
2023-05-01T18:14:43.520Z,17.55
2023-05-01T18:17:12.279Z,17.52
2023-05-01T18:19:39.775Z,17.49
2023-05-01T18:22:07.125Z,17.44
2023-05-01T18:24:34.491Z,17.33
2023-05-01T18:27:02.148Z,17.34
2023-05-01T18:29:30.307Z,17.29
2023-05-01T18:31:57.726Z,17.19
2023-05-01T18:34:26.942Z,17.07
2023-05-01T18:36:54.644Z,17.04
2023-05-01T18:39:22.754Z,17.04
2023-05-01T18:41:50.470Z,17.05
2023-05-01T18:44:18.508Z,17.02
2023-05-01T18:46:46.047Z,17.01
2023-05-01T18:49:13.469Z,16.80
2023-05-01T18:51:42.252Z,16.88
2023-05-01T18:54:10.061Z,16.84
2023-05-01T18:56:37.557Z,16.82
2023-05-01T18:59:04.962Z,16.81
2023-05-01T19:01:32.440Z,16.78
2023-05-01T19:04:00.164Z,16.79
2023-05-01T19:06:27.675Z,16.70
2023-05-01T19:08:56.396Z,16.66
2023-05-01T19:11:26.138Z,16.66
2023-05-01T19:13:56.874Z,16.65
2023-05-01T19:16:24.803Z,16.56
2023-05-01T19:18:52.356Z,16.19
2023-05-01T19:21:19.830Z,16.34
2023-05-01T19:23:48.028Z,16.37
2023-05-01T19:26:16.856Z,16.42
2023-05-01T19:28:44.285Z,16.38
2023-05-01T19:31:13.149Z,16.39
2023-05-01T19:33:41.994Z,16.36
2023-05-01T19:36:09.413Z,16.32
2023-05-01T19:38:36.806Z,16.33
2023-05-01T19:41:04.255Z,16.35
2023-05-01T19:43:32.978Z,16.15
2023-05-01T19:46:00.479Z,16.15
2023-05-01T19:48:28.048Z,16.22
2023-05-01T19:50:55.625Z,16.23
2023-05-01T19:53:23.056Z,16.24
2023-05-01T19:55:50.544Z,16.12
2023-05-01T19:58:17.968Z,16.06
2023-05-01T20:00:46.964Z,16.04
2023-05-01T20:03:15.593Z,16.04
2023-05-01T20:05:43.234Z,15.78
2023-05-01T20:08:11.022Z,15.81
2023-05-01T20:10:38.417Z,15.90
2023-05-01T20:13:10.373Z,15.73
2023-05-01T20:15:38.426Z,15.64
2023-05-01T20:18:07.384Z,15.61
2023-05-01T20:20:35.000Z,15.70
2023-05-01T20:23:12.441Z,15.74
2023-05-01T20:25:39.901Z,15.71
2023-05-01T20:28:08.888Z,15.69
2023-05-01T20:30:38.224Z,15.65
2023-05-01T20:33:07.758Z,15.41
2023-05-01T20:35:35.566Z,15.02
2023-05-01T20:38:04.439Z,14.54
2023-05-01T20:40:33.362Z,14.80
2023-05-01T20:43:01.322Z,15.08
2023-05-01T20:45:30.563Z,15.19
2023-05-01T20:47:58.176Z,14.48
2023-05-01T20:50:27.673Z,14.36
2023-05-01T20:52:56.214Z,14.73
2023-05-01T20:55:24.774Z,14.63
2023-05-01T20:57:52.157Z,14.67
2023-05-01T21:00:19.735Z,14.77
2023-05-01T21:02:47.256Z,14.85
2023-05-01T21:05:16.251Z,14.82
2023-05-01T21:07:44.986Z,14.88
2023-05-01T21:10:14.427Z,14.43
2023-05-01T21:12:42.583Z,14.49
2023-05-01T21:15:11.442Z,14.54
2023-05-01T21:17:43.173Z,14.65
2023-05-01T21:20:14.376Z,14.60
2023-05-01T21:22:42.772Z,14.49
2023-05-01T21:25:12.134Z,14.60
2023-05-01T21:27:42.040Z,14.47
2023-05-01T21:30:15.137Z,14.55
2023-05-01T21:32:42.919Z,14.50
2023-05-01T21:35:13.837Z,14.48
2023-05-01T21:37:44.621Z,14.41
2023-05-01T21:40:14.887Z,14.38
2023-05-01T21:42:42.411Z,14.26
2023-05-01T21:45:12.625Z,14.36
2023-05-01T21:47:41.661Z,14.30
2023-05-01T21:50:12.782Z,14.43
2023-05-01T21:52:40.977Z,14.47
2023-05-01T21:55:10.155Z,14.58
2023-05-01T21:57:40.575Z,14.62
2023-05-01T22:00:10.129Z,14.58
2023-05-01T22:02:41.889Z,14.67
2023-05-01T22:05:10.413Z,14.43
2023-05-01T22:07:39.385Z,14.38
2023-05-01T22:10:08.778Z,14.55
2023-05-01T22:12:36.182Z,14.46
2023-05-01T22:15:05.805Z,14.48
2023-05-01T22:17:33.339Z,14.36
2023-05-01T22:20:00.923Z,14.43
2023-05-01T22:22:28.607Z,14.49
2023-05-01T22:24:56.028Z,14.39
2023-05-01T22:27:23.417Z,14.49
2023-05-01T22:29:50.793Z,14.50
2023-05-01T22:32:19.606Z,14.43
2023-05-01T22:34:47.106Z,14.46
2023-05-01T22:37:14.569Z,14.50
2023-05-01T22:39:41.968Z,14.48
2023-05-01T22:42:09.427Z,14.42
2023-05-01T22:44:36.819Z,14.42
2023-05-01T22:47:04.267Z,14.40
2023-05-01T22:49:33.331Z,14.37
2023-05-01T22:52:00.764Z,14.38
2023-05-01T22:54:28.225Z,14.25
2023-05-01T22:56:56.216Z,14.30
2023-05-01T22:59:23.979Z,14.37
2023-05-01T23:01:51.489Z,14.35
2023-05-01T23:04:18.974Z,14.31
2023-05-01T23:06:47.822Z,14.28
2023-05-01T23:09:15.641Z,13.99
2023-05-01T23:11:43.149Z,13.94
2023-05-01T23:14:10.592Z,13.98
2023-05-01T23:16:42.287Z,13.92
2023-05-01T23:19:19.246Z,13.93
2023-05-01T23:21:48.587Z,14.03
2023-05-01T23:24:18.652Z,14.07
2023-05-01T23:26:46.526Z,14.13
2023-05-01T23:29:16.009Z,14.12
2023-05-01T23:31:48.733Z,14.07
2023-05-01T23:34:17.949Z,14.03
2023-05-01T23:36:46.517Z,14.06
2023-05-01T23:39:16.149Z,13.76
2023-05-01T23:41:44.099Z,14.02
2023-05-01T23:44:11.908Z,14.09
2023-05-01T23:46:39.512Z,13.96
2023-05-01T23:49:07.388Z,13.84
2023-05-01T23:51:35.114Z,13.86
2023-05-01T23:54:04.221Z,14.03
2023-05-01T23:56:33.072Z,14.09
2023-05-01T23:59:00.459Z,14.11
